Time;durP1;ratioP1;P1;durP2;ratioP2;P2;SDS_P1;SDS_P2;PMS_P1;PMS_P2;Temp;Humidity;BMP_temperature;BMP_pressure;BME280_temperature;BME280_humidity;BME280_pressure;Samples;Min_cycle;Max_cycle;Signal;HPM_P1;HPM_P2
2022/09/13 00:00:30;;;;;;;;;;;21.30;42.50;;;;;;453052;263;2234;-50
2022/09/13 00:02:31;;;;;;;;;;;21.30;42.50;;;;;;452665;263;1365;-50
2022/09/13 00:04:33;;;;;;;;;;;21.30;42.40;;;;;;453090;263;1432;-51
2022/09/13 00:06:34;;;;;;;;;;;21.30;42.40;;;;;;452957;263;2166;-51
2022/09/13 00:08:35;;;;;;;;;;;21.30;42.40;;;;;;452692;263;1331;-51
2022/09/13 00:10:37;;;;;;;;;;;21.30;42.40;;;;;;452723;263;1266;-50
2022/09/13 00:12:38;;;;;;;;;;;21.30;42.40;;;;;;452752;263;1550;-50
2022/09/13 00:14:39;;;;;;;;;;;21.30;42.40;;;;;;453065;263;1261;-50
2022/09/13 00:16:41;;;;;;;;;;;21.30;42.40;;;;;;452946;263;1327;-51
2022/09/13 00:18:42;;;;;;;;;;;21.30;42.40;;;;;;453060;263;1338;-50
2022/09/13 00:20:43;;;;;;;;;;;21.40;42.50;;;;;;452217;263;1236;-50
2022/09/13 00:22:45;;;;;;;;;;;21.30;42.60;;;;;;452672;263;1314;-51
2022/09/13 00:24:46;;;;;;;;;;;21.30;42.60;;;;;;453058;262;1315;-51
2022/09/13 00:26:47;;;;;;;;;;;21.30;42.50;;;;;;452911;263;2166;-50
2022/09/13 00:28:49;;;;;;;;;;;21.30;42.70;;;;;;452929;263;1331;-50
2022/09/13 00:30:51;;;;;;;;;;;21.30;42.60;;;;;;453036;262;1264;-50
2022/09/13 00:32:51;;;;;;;;;;;21.30;42.60;;;;;;452753;263;1606;-51
2022/09/13 00:34:53;;;;;;;;;;;21.30;42.50;;;;;;452635;262;1287;-50
2022/09/13 00:36:54;;;;;;;;;;;21.30;42.50;;;;;;453046;263;1358;-50
2022/09/13 00:38:55;;;;;;;;;;;21.30;42.50;;;;;;452588;263;1405;-50
2022/09/13 00:40:57;;;;;;;;;;;21.30;42.40;;;;;;452680;263;1510;-50
2022/09/13 00:42:58;;;;;;;;;;;21.30;42.50;;;;;;453078;263;1298;-51
2022/09/13 00:44:59;;;;;;;;;;;21.30;42.40;;;;;;452741;262;1267;-50
2022/09/13 00:47:01;;;;;;;;;;;21.30;42.40;;;;;;453014;262;2174;-50
2022/09/13 00:49:02;;;;;;;;;;;21.30;42.50;;;;;;453111;263;1265;-51
2022/09/13 00:51:03;;;;;;;;;;;21.30;42.40;;;;;;452965;263;1341;-50
2022/09/13 00:53:05;;;;;;;;;;;21.30;42.40;;;;;;452907;263;1224;-50
2022/09/13 00:55:06;;;;;;;;;;;21.30;42.40;;;;;;452683;263;1179;-50
2022/09/13 00:57:07;;;;;;;;;;;21.30;42.30;;;;;;452830;263;1361;-50
2022/09/13 00:59:09;;;;;;;;;;;21.30;42.40;;;;;;452884;263;1092;-50
2022/09/13 01:01:10;;;;;;;;;;;21.30;42.40;;;;;;452964;263;1382;-50
2022/09/13 01:03:11;;;;;;;;;;;21.30;42.30;;;;;;452866;263;1249;-51
2022/09/13 01:05:13;;;;;;;;;;;21.30;42.40;;;;;;453040;263;1084;-50
2022/09/13 01:07:14;;;;;;;;;;;21.30;42.40;;;;;;453103;263;2158;-50
2022/09/13 01:09:15;;;;;;;;;;;21.30;42.30;;;;;;453053;263;1080;-50
2022/09/13 01:11:16;;;;;;;;;;;21.30;42.40;;;;;;453073;263;1240;-51
2022/09/13 01:13:18;;;;;;;;;;;21.30;42.40;;;;;;453146;263;1043;-50
2022/09/13 01:15:19;;;;;;;;;;;21.30;42.30;;;;;;453121;263;1087;-49
2022/09/13 01:17:21;;;;;;;;;;;21.30;42.30;;;;;;453072;262;1325;-50
2022/09/13 01:19:22;;;;;;;;;;;21.30;42.20;;;;;;453029;263;1216;-50
2022/09/13 01:21:24;;;;;;;;;;;21.30;42.30;;;;;;452988;263;1272;-50
2022/09/13 01:23:24;;;;;;;;;;;21.30;42.30;;;;;;453144;262;1004;-49
2022/09/13 01:25:27;;;;;;;;;;;21.30;42.30;;;;;;453078;263;1228;-50
2022/09/13 01:27:28;;;;;;;;;;;21.30;42.30;;;;;;453157;262;2141;-50
2022/09/13 01:29:29;;;;;;;;;;;21.30;42.20;;;;;;452812;263;1304;-50
2022/09/13 01:31:30;;;;;;;;;;;21.30;42.20;;;;;;452727;263;1298;-51
2022/09/13 01:33:31;;;;;;;;;;;21.30;42.20;;;;;;452895;263;1379;-50
2022/09/13 01:35:33;;;;;;;;;;;21.30;42.20;;;;;;453137;263;1032;-50
2022/09/13 01:37:35;;;;;;;;;;;21.30;42.20;;;;;;453099;263;1311;-51
2022/09/13 01:39:35;;;;;;;;;;;21.40;42.20;;;;;;453032;263;2230;-50
2022/09/13 01:41:37;;;;;;;;;;;21.30;42.20;;;;;;452927;263;1352;-50
2022/09/13 01:43:38;;;;;;;;;;;21.30;42.10;;;;;;453167;262;1312;-50
2022/09/13 01:45:39;;;;;;;;;;;21.30;42.10;;;;;;452986;263;1375;-50
2022/09/13 01:47:41;;;;;;;;;;;21.30;42.20;;;;;;453070;263;2137;-51
2022/09/13 01:49:42;;;;;;;;;;;21.30;42.10;;;;;;453072;263;1312;-51
2022/09/13 01:51:43;;;;;;;;;;;21.30;42.10;;;;;;453109;263;1240;-50
2022/09/13 01:53:45;;;;;;;;;;;21.30;42.20;;;;;;452890;263;1358;-50
2022/09/13 01:55:46;;;;;;;;;;;21.30;42.20;;;;;;453012;263;1247;-50
2022/09/13 01:57:47;;;;;;;;;;;21.30;42.30;;;;;;452908;263;1366;-51
2022/09/13 01:59:49;;;;;;;;;;;21.30;42.40;;;;;;452827;263;1368;-50
2022/09/13 02:01:51;;;;;;;;;;;21.30;42.40;;;;;;452985;263;1346;-50
2022/09/13 02:03:52;;;;;;;;;;;21.30;42.40;;;;;;452828;263;2154;-50
2022/09/13 02:05:53;;;;;;;;;;;21.30;42.30;;;;;;452692;263;2201;-50
2022/09/13 02:07:54;;;;;;;;;;;21.30;42.30;;;;;;452763;263;1463;-50
2022/09/13 02:09:56;;;;;;;;;;;21.30;42.20;;;;;;453037;263;1380;-49
2022/09/13 02:11:58;;;;;;;;;;;21.30;42.30;;;;;;452522;263;1719;-50
2022/09/13 02:13:59;;;;;;;;;;;21.30;42.20;;;;;;452640;263;2242;-50
2022/09/13 02:16:00;;;;;;;;;;;21.30;42.20;;;;;;453087;263;1632;-50
2022/09/13 02:18:01;;;;;;;;;;;21.30;42.20;;;;;;453082;263;1260;-50
2022/09/13 02:20:03;;;;;;;;;;;21.30;42.20;;;;;;452702;263;1267;-51
2022/09/13 02:22:04;;;;;;;;;;;21.30;42.10;;;;;;453085;263;1306;-51
2022/09/13 02:24:05;;;;;;;;;;;21.30;42.10;;;;;;453069;263;1254;-50
2022/09/13 02:26:07;;;;;;;;;;;21.30;42.20;;;;;;453123;262;2205;-50
2022/09/13 02:28:08;;;;;;;;;;;21.30;42.20;;;;;;453095;263;1399;-50
2022/09/13 02:30:09;;;;;;;;;;;21.30;42.10;;;;;;452757;263;1295;-51
2022/09/13 02:32:11;;;;;;;;;;;21.40;42.20;;;;;;453058;263;1302;-50
2022/09/13 02:34:12;;;;;;;;;;;21.30;42.00;;;;;;452926;263;1458;-51
2022/09/13 02:36:13;;;;;;;;;;;21.30;42.00;;;;;;452718;262;1355;-50
2022/09/13 02:38:15;;;;;;;;;;;21.30;42.10;;;;;;453095;263;1310;-50
2022/09/13 02:40:16;;;;;;;;;;;21.40;42.10;;;;;;452846;263;1517;-50
2022/09/13 02:42:17;;;;;;;;;;;21.30;42.10;;;;;;453073;263;1333;-51
2022/09/13 02:44:18;;;;;;;;;;;21.30;42.00;;;;;;453093;263;1317;-50
2022/09/13 02:46:20;;;;;;;;;;;21.40;42.10;;;;;;452910;263;2205;-51
2022/09/13 02:48:21;;;;;;;;;;;21.30;42.00;;;;;;453136;262;1418;-50
2022/09/13 02:50:23;;;;;;;;;;;21.30;42.00;;;;;;452723;263;1372;-51
2022/09/13 02:52:24;;;;;;;;;;;21.30;42.00;;;;;;452744;263;1317;-50
2022/09/13 02:54:25;;;;;;;;;;;21.30;42.00;;;;;;453085;263;1339;-50
2022/09/13 02:56:27;;;;;;;;;;;21.30;42.00;;;;;;453075;263;1288;-50
2022/09/13 02:58:28;;;;;;;;;;;21.30;42.00;;;;;;452873;263;1315;-50
2022/09/13 03:00:30;;;;;;;;;;;21.30;42.00;;;;;;452655;263;1207;-50
2022/09/13 03:02:31;;;;;;;;;;;21.30;42.00;;;;;;453017;263;2265;-50
2022/09/13 03:04:32;;;;;;;;;;;21.30;42.00;;;;;;452947;263;1284;-50
2022/09/13 03:06:33;;;;;;;;;;;21.30;42.00;;;;;;452615;263;2216;-51
2022/09/13 03:08:35;;;;;;;;;;;21.30;42.00;;;;;;453074;263;1260;-50
2022/09/13 03:10:36;;;;;;;;;;;21.30;42.00;;;;;;453031;263;1366;-50
2022/09/13 03:12:37;;;;;;;;;;;21.30;41.90;;;;;;451979;263;1221;-51
2022/09/13 03:14:39;;;;;;;;;;;21.30;42.00;;;;;;452746;263;1409;-51
2022/09/13 03:16:40;;;;;;;;;;;21.30;42.00;;;;;;452659;263;1291;-50
2022/09/13 03:18:41;;;;;;;;;;;21.30;42.00;;;;;;452695;263;1388;-50
2022/09/13 03:20:43;;;;;;;;;;;21.30;41.90;;;;;;452723;263;1342;-50
2022/09/13 03:22:44;;;;;;;;;;;21.30;41.90;;;;;;452606;263;1366;-50
2022/09/13 03:24:45;;;;;;;;;;;21.30;41.90;;;;;;452746;263;1301;-50
2022/09/13 03:26:46;;;;;;;;;;;21.30;41.90;;;;;;452857;263;2204;-50
2022/09/13 03:28:48;;;;;;;;;;;21.30;42.00;;;;;;453084;263;1298;-50
2022/09/13 03:30:49;;;;;;;;;;;21.30;42.00;;;;;;452788;263;1297;-50
2022/09/13 03:32:50;;;;;;;;;;;21.30;42.10;;;;;;452610;263;1312;-50
2022/09/13 03:34:52;;;;;;;;;;;21.30;42.20;;;;;;452967;263;1392;-50
2022/09/13 03:36:53;;;;;;;;;;;21.20;42.30;;;;;;452735;263;1295;-50
2022/09/13 03:38:55;;;;;;;;;;;21.30;42.40;;;;;;453105;263;1370;-50
2022/09/13 03:40:56;;;;;;;;;;;21.20;42.40;;;;;;452817;263;1429;-50
2022/09/13 03:42:57;;;;;;;;;;;21.20;42.50;;;;;;452619;263;1201;-51
2022/09/13 03:44:58;;;;;;;;;;;21.30;42.50;;;;;;453071;263;1301;-50
2022/09/13 03:47:00;;;;;;;;;;;21.30;42.60;;;;;;452168;263;2221;-50
2022/09/13 03:49:01;;;;;;;;;;;21.20;42.60;;;;;;452801;263;1171;-50
2022/09/13 03:51:02;;;;;;;;;;;21.20;42.70;;;;;;452659;263;1303;-50
2022/09/13 03:53:04;;;;;;;;;;;21.20;42.70;;;;;;452996;263;1216;-50
2022/09/13 03:55:05;;;;;;;;;;;21.20;42.70;;;;;;453071;263;1368;-50
2022/09/13 03:57:06;;;;;;;;;;;21.20;42.80;;;;;;452934;263;1316;-50
2022/09/13 03:59:08;;;;;;;;;;;21.20;42.80;;;;;;452690;263;1363;-50
2022/09/13 04:01:09;;;;;;;;;;;21.20;42.80;;;;;;453066;263;1267;-50
2022/09/13 04:03:11;;;;;;;;;;;21.20;42.90;;;;;;452612;263;1162;-50
2022/09/13 04:05:12;;;;;;;;;;;21.20;43.00;;;;;;452673;263;1301;-51
2022/09/13 04:07:13;;;;;;;;;;;21.20;43.00;;;;;;453076;263;2185;-50
2022/09/13 04:09:15;;;;;;;;;;;21.20;43.10;;;;;;453065;262;1321;-50
2022/09/13 04:11:16;;;;;;;;;;;21.20;43.00;;;;;;452674;263;1274;-50
2022/09/13 04:13:17;;;;;;;;;;;21.20;43.10;;;;;;452703;263;1199;-50
2022/09/13 04:15:19;;;;;;;;;;;21.20;43.10;;;;;;453069;263;1270;-50
2022/09/13 04:17:20;;;;;;;;;;;21.20;43.20;;;;;;452664;263;1295;-50
2022/09/13 04:19:21;;;;;;;;;;;21.20;43.20;;;;;;452723;263;1326;-50
2022/09/13 04:21:23;;;;;;;;;;;21.20;43.30;;;;;;452732;263;1276;-51
2022/09/13 04:23:24;;;;;;;;;;;21.10;43.30;;;;;;453097;263;1409;-50
2022/09/13 04:25:25;;;;;;;;;;;21.20;43.40;;;;;;453096;263;1384;-50
2022/09/13 04:27:27;;;;;;;;;;;21.20;43.30;;;;;;452708;263;2229;-50
2022/09/13 04:29:28;;;;;;;;;;;21.20;43.40;;;;;;453026;263;1101;-50
2022/09/13 04:31:29;;;;;;;;;;;21.10;43.40;;;;;;452775;263;1196;-50
2022/09/13 04:33:31;;;;;;;;;;;21.20;43.50;;;;;;453080;263;1208;-50
2022/09/13 04:35:32;;;;;;;;;;;21.20;43.50;;;;;;452909;263;1207;-51
2022/09/13 04:37:34;;;;;;;;;;;21.20;43.50;;;;;;453088;263;1520;-50
2022/09/13 04:39:35;;;;;;;;;;;21.20;43.50;;;;;;453093;263;1158;-50
2022/09/13 04:41:36;;;;;;;;;;;21.20;43.50;;;;;;452954;262;1313;-50
2022/09/13 04:43:38;;;;;;;;;;;21.20;43.60;;;;;;452841;263;1089;-50
2022/09/13 04:45:39;;;;;;;;;;;21.20;43.60;;;;;;453059;263;1242;-51
2022/09/13 04:47:40;;;;;;;;;;;21.20;43.70;;;;;;452795;263;2201;-50
2022/09/13 04:49:42;;;;;;;;;;;21.20;43.70;;;;;;452868;263;1148;-50
2022/09/13 04:51:43;;;;;;;;;;;21.20;43.70;;;;;;452840;263;1240;-50
2022/09/13 04:53:44;;;;;;;;;;;21.20;43.80;;;;;;452808;263;1124;-50
2022/09/13 04:55:45;;;;;;;;;;;21.20;43.70;;;;;;452624;263;1228;-50
2022/09/13 04:57:47;;;;;;;;;;;21.20;43.80;;;;;;452645;263;1224;-50
2022/09/13 04:59:48;;;;;;;;;;;21.20;43.80;;;;;;453101;263;1264;-50
2022/09/13 05:01:49;;;;;;;;;;;21.20;43.80;;;;;;453055;263;1333;-51
2022/09/13 05:03:51;;;;;;;;;;;21.20;43.80;;;;;;452604;263;1301;-51
2022/09/13 05:05:52;;;;;;;;;;;21.20;43.90;;;;;;452729;263;1274;-50
2022/09/13 05:07:53;;;;;;;;;;;21.20;43.90;;;;;;453040;263;2225;-50
2022/09/13 05:09:55;;;;;;;;;;;21.20;43.90;;;;;;453006;263;1260;-50
2022/09/13 05:11:56;;;;;;;;;;;21.20;43.90;;;;;;452817;263;1308;-50
2022/09/13 05:13:57;;;;;;;;;;;21.20;44.00;;;;;;452644;263;1518;-51
2022/09/13 05:15:59;;;;;;;;;;;21.20;44.00;;;;;;453060;263;1692;-51
2022/09/13 05:18:00;;;;;;;;;;;21.20;44.10;;;;;;453054;263;1248;-50
2022/09/13 05:20:01;;;;;;;;;;;21.20;44.00;;;;;;452773;263;1330;-50
2022/09/13 05:22:03;;;;;;;;;;;21.20;44.10;;;;;;452792;263;1285;-50
2022/09/13 05:24:04;;;;;;;;;;;21.20;44.20;;;;;;453274;262;1386;-50
2022/09/13 05:26:05;;;;;;;;;;;21.10;44.20;;;;;;452868;263;1248;-50
2022/09/13 05:28:07;;;;;;;;;;;21.10;44.10;;;;;;453038;263;2209;-50
2022/09/13 05:30:08;;;;;;;;;;;21.10;44.20;;;;;;453053;263;1278;-51
2022/09/13 05:32:09;;;;;;;;;;;21.20;44.20;;;;;;452856;263;1352;-50
2022/09/13 05:34:11;;;;;;;;;;;21.20;44.20;;;;;;452841;263;1262;-50
2022/09/13 05:36:12;;;;;;;;;;;21.20;44.30;;;;;;452730;262;1265;-50
2022/09/13 05:38:13;;;;;;;;;;;21.20;44.30;;;;;;452666;263;1422;-50
2022/09/13 05:40:15;;;;;;;;;;;21.20;44.40;;;;;;452619;263;1238;-50
2022/09/13 05:42:16;;;;;;;;;;;21.20;44.40;;;;;;452864;262;1224;-50
2022/09/13 05:44:17;;;;;;;;;;;21.10;44.40;;;;;;452611;263;1386;-50
2022/09/13 05:46:19;;;;;;;;;;;21.10;44.40;;;;;;452928;263;1228;-50
2022/09/13 05:48:20;;;;;;;;;;;21.10;44.40;;;;;;452827;263;2220;-50
2022/09/13 05:50:21;;;;;;;;;;;21.10;44.50;;;;;;452985;263;1091;-50
2022/09/13 05:52:23;;;;;;;;;;;21.10;44.40;;;;;;452837;263;1222;-50
2022/09/13 05:54:24;;;;;;;;;;;21.20;44.40;;;;;;452294;263;1967;-51
2022/09/13 05:56:26;;;;;;;;;;;21.20;44.50;;;;;;453028;263;1271;-50
2022/09/13 05:58:27;;;;;;;;;;;21.10;44.50;;;;;;452738;263;1320;-50
2022/09/13 06:00:28;;;;;;;;;;;21.10;44.50;;;;;;452713;263;1134;-51
2022/09/13 06:02:29;;;;;;;;;;;21.10;44.50;;;;;;452988;263;1205;-51
2022/09/13 06:04:31;;;;;;;;;;;21.20;44.50;;;;;;452965;263;1336;-51
2022/09/13 06:06:32;;;;;;;;;;;21.20;44.60;;;;;;452901;263;1214;-50
2022/09/13 06:08:33;;;;;;;;;;;21.20;44.60;;;;;;452616;263;2194;-50
2022/09/13 06:10:35;;;;;;;;;;;21.20;44.60;;;;;;452558;263;1254;-50
2022/09/13 06:12:37;;;;;;;;;;;21.10;44.70;;;;;;452393;263;1344;-51
2022/09/13 06:14:37;;;;;;;;;;;21.10;44.70;;;;;;452770;263;1543;-50
2022/09/13 06:16:39;;;;;;;;;;;21.10;44.70;;;;;;452484;263;1285;-50
2022/09/13 06:18:40;;;;;;;;;;;21.10;44.70;;;;;;452936;263;1324;-50
2022/09/13 06:20:41;;;;;;;;;;;21.20;44.80;;;;;;452668;263;1262;-50
2022/09/13 06:22:43;;;;;;;;;;;21.10;44.80;;;;;;452334;263;1720;-50
2022/09/13 06:24:44;;;;;;;;;;;21.10;44.80;;;;;;452711;262;1272;-50
2022/09/13 06:26:45;;;;;;;;;;;21.20;44.90;;;;;;452395;263;1343;-50
2022/09/13 06:28:47;;;;;;;;;;;21.20;44.90;;;;;;452742;263;2170;-50
2022/09/13 06:30:48;;;;;;;;;;;21.20;44.90;;;;;;452762;263;1322;-50
2022/09/13 06:32:50;;;;;;;;;;;21.10;44.90;;;;;;452788;263;1202;-50
2022/09/13 06:34:51;;;;;;;;;;;21.20;45.00;;;;;;452630;263;1778;-51
2022/09/13 06:36:52;;;;;;;;;;;21.10;45.00;;;;;;452609;263;1553;-50
2022/09/13 06:38:54;;;;;;;;;;;21.10;45.00;;;;;;452652;263;1271;-50
2022/09/13 06:40:55;;;;;;;;;;;21.10;45.10;;;;;;452466;263;1191;-50
2022/09/13 06:42:56;;;;;;;;;;;21.10;45.10;;;;;;452496;263;1452;-50
2022/09/13 06:44:58;;;;;;;;;;;21.10;45.10;;;;;;452599;263;1205;-50
2022/09/13 06:46:59;;;;;;;;;;;21.10;45.20;;;;;;452603;263;2018;-50
2022/09/13 06:49:00;;;;;;;;;;;21.10;45.20;;;;;;452514;263;2225;-51
2022/09/13 06:51:02;;;;;;;;;;;21.10;45.30;;;;;;452444;263;1340;-50
2022/09/13 06:53:03;;;;;;;;;;;21.10;45.30;;;;;;452421;263;1349;-50
2022/09/13 06:55:04;;;;;;;;;;;21.10;45.30;;;;;;452693;262;1215;-50
2022/09/13 06:57:06;;;;;;;;;;;21.10;45.30;;;;;;452534;263;1191;-51
2022/09/13 06:59:07;;;;;;;;;;;21.10;45.40;;;;;;452343;263;1172;-50
2022/09/13 07:01:11;;;;;;;;;;;21.10;45.40;;;;;;452629;263;1280;-50
2022/09/13 07:03:10;;;;;;;;;;;21.10;45.40;;;;;;452397;263;2294;-50
2022/09/13 07:05:12;;;;;;;;;;;21.10;45.40;;;;;;452541;263;1252;-50
2022/09/13 07:07:13;;;;;;;;;;;21.10;45.50;;;;;;452550;263;1202;-50
2022/09/13 07:09:16;;;;;;;;;;;21.10;45.50;;;;;;452608;263;2201;-50
2022/09/13 07:11:17;;;;;;;;;;;21.10;45.50;;;;;;452792;262;2354;-50
2022/09/13 07:13:17;;;;;;;;;;;21.20;45.60;;;;;;452799;263;1747;-50
2022/09/13 07:15:19;;;;;;;;;;;21.20;45.60;;;;;;452424;263;1304;-50
2022/09/13 07:17:20;;;;;;;;;;;21.10;45.60;;;;;;452541;263;1236;-51
2022/09/13 07:19:22;;;;;;;;;;;21.10;45.60;;;;;;452532;262;1279;-50
2022/09/13 07:21:23;;;;;;;;;;;21.10;45.60;;;;;;452549;263;1223;-50
2022/09/13 07:23:25;;;;;;;;;;;21.20;45.70;;;;;;452639;262;1306;-50
2022/09/13 07:25:26;;;;;;;;;;;21.10;45.70;;;;;;452638;262;1369;-51
2022/09/13 07:27:27;;;;;;;;;;;21.10;45.70;;;;;;452477;262;1321;-50
2022/09/13 07:29:29;;;;;;;;;;;21.10;45.80;;;;;;452383;263;2208;-51
2022/09/13 07:31:30;;;;;;;;;;;21.10;45.80;;;;;;452272;263;1344;-51
2022/09/13 07:33:31;;;;;;;;;;;21.10;45.90;;;;;;452367;263;1271;-50
2022/09/13 07:35:33;;;;;;;;;;;21.10;45.80;;;;;;452380;263;1275;-50
2022/09/13 07:37:34;;;;;;;;;;;21.10;45.90;;;;;;452316;262;1259;-51
2022/09/13 07:39:35;;;;;;;;;;;21.10;45.90;;;;;;452374;263;1249;-50
2022/09/13 07:41:37;;;;;;;;;;;21.10;45.90;;;;;;452042;263;1491;-50
2022/09/13 07:43:38;;;;;;;;;;;21.10;46.00;;;;;;452522;262;1157;-50
2022/09/13 07:45:39;;;;;;;;;;;21.10;46.10;;;;;;452596;263;1284;-50
2022/09/13 07:47:41;;;;;;;;;;;21.10;46.10;;;;;;452259;263;1670;-51
2022/09/13 07:49:42;;;;;;;;;;;21.10;46.10;;;;;;452425;263;2162;-50
2022/09/13 07:51:43;;;;;;;;;;;21.10;46.10;;;;;;452425;263;1282;-50
2022/09/13 07:53:45;;;;;;;;;;;21.10;46.10;;;;;;452733;263;1250;-50
2022/09/13 07:55:46;;;;;;;;;;;21.10;46.20;;;;;;452739;263;1312;-50
2022/09/13 07:57:47;;;;;;;;;;;21.10;46.20;;;;;;452399;263;1262;-50
2022/09/13 07:59:48;;;;;;;;;;;21.10;46.10;;;;;;452475;263;1274;-50
2022/09/13 08:01:50;;;;;;;;;;;21.10;46.10;;;;;;452339;263;1228;-50
2022/09/13 08:03:51;;;;;;;;;;;21.10;46.20;;;;;;452272;263;1335;-50
2022/09/13 08:05:52;;;;;;;;;;;21.10;46.20;;;;;;452355;263;1516;-50
2022/09/13 08:07:54;;;;;;;;;;;21.10;46.30;;;;;;452567;262;1206;-51
2022/09/13 08:09:55;;;;;;;;;;;21.10;46.30;;;;;;452348;263;2138;-50
2022/09/13 08:11:57;;;;;;;;;;;21.10;46.30;;;;;;452164;263;1400;-51
2022/09/13 08:13:58;;;;;;;;;;;21.10;46.40;;;;;;452273;262;1230;-50
2022/09/13 08:15:59;;;;;;;;;;;21.10;46.40;;;;;;452322;262;1685;-50
2022/09/13 08:18:01;;;;;;;;;;;21.10;46.40;;;;;;452376;262;1387;-50
2022/09/13 08:20:03;;;;;;;;;;;21.10;46.40;;;;;;452373;263;1655;-50
2022/09/13 08:22:03;;;;;;;;;;;21.10;46.40;;;;;;452220;263;1733;-50
2022/09/13 08:24:05;;;;;;;;;;;21.10;46.40;;;;;;452398;263;1287;-50
2022/09/13 08:26:07;;;;;;;;;;;21.20;46.50;;;;;;452378;263;1297;-50
2022/09/13 08:28:09;;;;;;;;;;;21.10;46.50;;;;;;452440;263;2202;-50
2022/09/13 08:30:09;;;;;;;;;;;21.10;46.50;;;;;;452256;263;2131;-50
2022/09/13 08:32:11;;;;;;;;;;;21.10;46.50;;;;;;452615;263;1381;-50
2022/09/13 08:34:13;;;;;;;;;;;21.10;46.50;;;;;;452406;262;1265;-50
2022/09/13 08:36:13;;;;;;;;;;;21.10;46.50;;;;;;452267;263;2259;-50
2022/09/13 08:38:15;;;;;;;;;;;21.10;46.60;;;;;;452674;263;1292;-50
2022/09/13 08:40:16;;;;;;;;;;;21.10;46.60;;;;;;452232;263;1334;-50
2022/09/13 08:42:17;;;;;;;;;;;21.10;46.70;;;;;;452339;263;1236;-50
2022/09/13 08:44:22;;;;;;;;;;;21.10;46.70;;;;;;452390;262;1184;-50
2022/09/13 08:46:20;;;;;;;;;;;21.10;46.70;;;;;;452294;263;2133;-51
2022/09/13 08:48:21;;;;;;;;;;;21.10;46.70;;;;;;452437;263;2158;-50
2022/09/13 08:50:23;;;;;;;;;;;21.10;46.70;;;;;;452522;263;1246;-50
2022/09/13 08:52:24;;;;;;;;;;;21.20;46.80;;;;;;452382;263;1290;-50
2022/09/13 08:54:26;;;;;;;;;;;21.10;46.80;;;;;;452679;263;1621;-50
2022/09/13 08:56:27;;;;;;;;;;;21.10;46.80;;;;;;452460;263;1270;-51
2022/09/13 08:58:28;;;;;;;;;;;21.10;46.80;;;;;;452304;263;1472;-50
2022/09/13 09:00:30;;;;;;;;;;;21.10;46.80;;;;;;452304;263;1299;-50
2022/09/13 09:02:31;;;;;;;;;;;21.10;46.90;;;;;;452629;262;1350;-50
2022/09/13 09:04:33;;;;;;;;;;;21.10;46.90;;;;;;452557;263;1307;-51
2022/09/13 09:06:34;;;;;;;;;;;21.10;47.00;;;;;;452307;263;1472;-50
2022/09/13 09:08:35;;;;;;;;;;;21.10;46.90;;;;;;452373;263;2172;-50
2022/09/13 09:10:36;;;;;;;;;;;21.10;46.90;;;;;;452311;263;1952;-50
2022/09/13 09:12:38;;;;;;;;;;;21.10;47.00;;;;;;452242;263;1373;-51
2022/09/13 09:14:39;;;;;;;;;;;21.10;46.90;;;;;;452222;263;1289;-50
2022/09/13 09:16:40;;;;;;;;;;;21.10;47.00;;;;;;452275;263;1198;-50
2022/09/13 09:18:42;;;;;;;;;;;21.20;47.00;;;;;;452129;262;1273;-50
2022/09/13 09:20:43;;;;;;;;;;;21.10;47.00;;;;;;452428;263;1214;-50
2022/09/13 09:22:45;;;;;;;;;;;21.20;47.00;;;;;;452337;263;1206;-50
2022/09/13 09:24:46;;;;;;;;;;;21.20;47.00;;;;;;452312;263;1200;-51
2022/09/13 09:26:47;;;;;;;;;;;21.10;47.10;;;;;;452083;263;1215;-50
2022/09/13 09:28:49;;;;;;;;;;;21.20;47.10;;;;;;452317;262;2213;-50
2022/09/13 09:30:50;;;;;;;;;;;21.10;47.10;;;;;;452292;263;1369;-50
2022/09/13 09:32:51;;;;;;;;;;;21.10;47.10;;;;;;452177;263;1178;-50
2022/09/13 09:34:52;;;;;;;;;;;21.10;47.20;;;;;;452708;262;1211;-50
2022/09/13 09:36:54;;;;;;;;;;;21.10;47.20;;;;;;452630;262;1228;-50
2022/09/13 09:38:56;;;;;;;;;;;21.10;47.10;;;;;;452669;263;1227;-50
2022/09/13 09:40:56;;;;;;;;;;;21.10;47.20;;;;;;452566;262;1589;-50
2022/09/13 09:42:58;;;;;;;;;;;21.10;47.20;;;;;;452318;263;1186;-50
2022/09/13 09:45:00;;;;;;;;;;;21.10;47.20;;;;;;452322;263;1554;-50
2022/09/13 09:47:01;;;;;;;;;;;21.10;47.20;;;;;;452848;262;1267;-51
2022/09/13 09:49:02;;;;;;;;;;;21.10;47.30;;;;;;452392;263;2205;-50
2022/09/13 09:51:04;;;;;;;;;;;21.10;47.30;;;;;;452598;263;1244;-50
2022/09/13 09:53:05;;;;;;;;;;;21.10;47.30;;;;;;452158;263;1346;-51
2022/09/13 09:55:06;;;;;;;;;;;21.10;47.40;;;;;;452406;263;1311;-50
2022/09/13 09:57:08;;;;;;;;;;;21.10;47.30;;;;;;452433;262;1237;-50
2022/09/13 09:59:10;;;;;;;;;;;21.10;47.40;;;;;;452628;263;1198;-51
2022/09/13 10:01:11;;;;;;;;;;;21.10;47.40;;;;;;452628;263;2286;-50
2022/09/13 10:03:12;;;;;;;;;;;21.10;47.40;;;;;;452439;263;1259;-50
2022/09/13 10:05:13;;;;;;;;;;;21.10;47.40;;;;;;452506;263;1211;-50
2022/09/13 10:07:14;;;;;;;;;;;21.20;47.50;;;;;;452347;263;1358;-50
2022/09/13 10:09:16;;;;;;;;;;;21.20;47.50;;;;;;452420;263;2229;-50
2022/09/13 10:11:21;;;;;;;;;;;21.10;47.50;;;;;;452679;263;1299;-50
2022/09/13 10:13:19;;;;;;;;;;;21.20;47.60;;;;;;452271;262;1790;-50
2022/09/13 10:15:20;;;;;;;;;;;21.10;47.50;;;;;;452620;263;1393;-51
2022/09/13 10:17:21;;;;;;;;;;;21.10;47.50;;;;;;452682;263;1248;-50
2022/09/13 10:19:22;;;;;;;;;;;21.20;47.60;;;;;;452450;263;1377;-51
2022/09/13 10:21:24;;;;;;;;;;;21.10;47.60;;;;;;452196;263;1256;-50
2022/09/13 10:23:26;;;;;;;;;;;21.10;47.70;;;;;;452466;262;1363;-50
2022/09/13 10:25:26;;;;;;;;;;;21.10;47.70;;;;;;452550;262;1425;-50
2022/09/13 10:27:28;;;;;;;;;;;21.10;47.70;;;;;;452498;263;1256;-50
2022/09/13 10:29:29;;;;;;;;;;;21.10;47.70;;;;;;452442;263;2197;-50
2022/09/13 10:31:30;;;;;;;;;;;21.10;47.70;;;;;;452556;263;1283;-50
2022/09/13 10:33:32;;;;;;;;;;;21.10;47.80;;;;;;452839;263;1348;-50
2022/09/13 10:35:33;;;;;;;;;;;21.10;47.80;;;;;;452515;263;1361;-50
2022/09/13 10:37:35;;;;;;;;;;;21.10;47.80;;;;;;452463;263;1587;-51
2022/09/13 10:39:36;;;;;;;;;;;21.10;47.80;;;;;;452458;262;1317;-50
2022/09/13 10:41:37;;;;;;;;;;;21.10;47.90;;;;;;452352;263;1343;-51
2022/09/13 10:43:39;;;;;;;;;;;21.10;47.80;;;;;;452459;262;1212;-51
2022/09/13 10:45:41;;;;;;;;;;;21.10;47.90;;;;;;452512;263;1245;-51
2022/09/13 10:47:41;;;;;;;;;;;21.10;47.90;;;;;;452779;262;2218;-51
2022/09/13 10:49:43;;;;;;;;;;;21.10;47.90;;;;;;452714;263;2209;-50
2022/09/13 10:51:44;;;;;;;;;;;21.10;47.90;;;;;;452345;263;1573;-50
2022/09/13 10:53:46;;;;;;;;;;;21.10;47.90;;;;;;452474;263;1364;-50
2022/09/13 10:55:47;;;;;;;;;;;21.10;48.00;;;;;;452210;263;1232;-50
2022/09/13 10:57:48;;;;;;;;;;;21.10;47.90;;;;;;452406;262;1771;-50
2022/09/13 10:59:49;;;;;;;;;;;21.10;47.90;;;;;;452493;263;1312;-51
2022/09/13 11:01:51;;;;;;;;;;;21.20;48.00;;;;;;452504;263;1320;-49
2022/09/13 11:03:55;;;;;;;;;;;21.20;48.00;;;;;;452646;263;1308;-50
2022/09/13 11:05:54;;;;;;;;;;;21.10;48.00;;;;;;452378;263;2003;-50
2022/09/13 11:07:55;;;;;;;;;;;21.10;48.10;;;;;;452400;263;1236;-50
2022/09/13 11:09:56;;;;;;;;;;;21.10;48.10;;;;;;452310;262;2246;-51
2022/09/13 11:11:58;;;;;;;;;;;21.10;48.10;;;;;;452575;263;1293;-50
2022/09/13 11:13:59;;;;;;;;;;;21.10;48.10;;;;;;452182;263;2199;-50
2022/09/13 11:16:02;;;;;;;;;;;21.10;48.10;;;;;;452454;263;1622;-50
2022/09/13 11:18:02;;;;;;;;;;;21.10;48.10;;;;;;452435;262;2498;-50
2022/09/13 11:20:03;;;;;;;;;;;21.10;48.20;;;;;;452504;263;1577;-50
2022/09/13 11:22:05;;;;;;;;;;;21.10;48.30;;;;;;452270;263;1213;-50
2022/09/13 11:24:06;;;;;;;;;;;21.10;48.30;;;;;;452475;263;1262;-50
2022/09/13 11:26:07;;;;;;;;;;;21.10;48.20;;;;;;452455;263;1281;-50
2022/09/13 11:28:09;;;;;;;;;;;21.10;48.20;;;;;;452411;263;1200;-50
2022/09/13 11:30:10;;;;;;;;;;;21.10;48.20;;;;;;452808;263;2173;-51
2022/09/13 11:32:11;;;;;;;;;;;21.10;48.30;;;;;;452825;263;1583;-51
2022/09/13 11:34:12;;;;;;;;;;;21.10;48.30;;;;;;452442;263;1544;-50
2022/09/13 11:36:14;;;;;;;;;;;21.10;48.30;;;;;;452608;263;1321;-50
2022/09/13 11:38:15;;;;;;;;;;;21.20;48.30;;;;;;452606;262;1204;-50
2022/09/13 11:40:17;;;;;;;;;;;21.20;48.40;;;;;;452658;263;1468;-50
2022/09/13 11:42:18;;;;;;;;;;;21.10;48.40;;;;;;452407;262;1288;-51
2022/09/13 11:44:19;;;;;;;;;;;21.10;48.40;;;;;;452387;263;1239;-51
2022/09/13 11:46:20;;;;;;;;;;;21.10;48.40;;;;;;452477;263;1268;-50
2022/09/13 11:48:22;;;;;;;;;;;21.10;48.40;;;;;;452662;263;1237;-50
2022/09/13 11:50:23;;;;;;;;;;;21.20;48.50;;;;;;452731;263;2185;-50
2022/09/13 11:52:25;;;;;;;;;;;21.10;48.40;;;;;;452247;263;1375;-50
2022/09/13 11:54:26;;;;;;;;;;;21.10;48.50;;;;;;452368;263;1316;-50
2022/09/13 11:56:28;;;;;;;;;;;21.20;48.50;;;;;;452486;262;1418;-50